sensor_id;sensor_type;location;lat;lon;timestamp;P1;durP1;ratioP1;P2;durP2;ratioP2
10596;SDS011;5346;48.766;8.674;2022-07-23T00:02:15;5.43;;;4.70;;
10596;SDS011;5346;48.766;8.674;2022-07-23T00:04:50;5.10;;;4.60;;
10596;SDS011;5346;48.766;8.674;2022-07-23T00:07:24;4.85;;;4.45;;
10596;SDS011;5346;48.766;8.674;2022-07-23T00:09:52;5.65;;;5.05;;
10596;SDS011;5346;48.766;8.674;2022-07-23T00:12:20;5.53;;;4.70;;
10596;SDS011;5346;48.766;8.674;2022-07-23T00:14:58;6.30;;;4.72;;
10596;SDS011;5346;48.766;8.674;2022-07-23T00:17:26;6.57;;;5.00;;
10596;SDS011;5346;48.766;8.674;2022-07-23T00:19:53;5.18;;;4.63;;
10596;SDS011;5346;48.766;8.674;2022-07-23T00:22:27;6.43;;;4.72;;
10596;SDS011;5346;48.766;8.674;2022-07-23T00:24:56;6.28;;;4.70;;
10596;SDS011;5346;48.766;8.674;2022-07-23T00:27:43;4.60;;;4.20;;
10596;SDS011;5346;48.766;8.674;2022-07-23T00:30:17;4.88;;;4.38;;
10596;SDS011;5346;48.766;8.674;2022-07-23T00:32:49;6.88;;;4.50;;
10596;SDS011;5346;48.766;8.674;2022-07-23T00:35:26;5.03;;;4.53;;
10596;SDS011;5346;48.766;8.674;2022-07-23T00:37:55;5.75;;;4.72;;
10596;SDS011;5346;48.766;8.674;2022-07-23T00:40:24;7.30;;;4.63;;
10596;SDS011;5346;48.766;8.674;2022-07-23T00:43:00;6.78;;;4.45;;
10596;SDS011;5346;48.766;8.674;2022-07-23T00:45:28;5.70;;;4.50;;
10596;SDS011;5346;48.766;8.674;2022-07-23T00:47:56;4.95;;;4.55;;
10596;SDS011;5346;48.766;8.674;2022-07-23T00:50:29;5.13;;;4.70;;
10596;SDS011;5346;48.766;8.674;2022-07-23T00:52:57;7.03;;;4.70;;
10596;SDS011;5346;48.766;8.674;2022-07-23T00:55:26;4.60;;;4.20;;
10596;SDS011;5346;48.766;8.674;2022-07-23T00:58:01;5.82;;;4.60;;
10596;SDS011;5346;48.766;8.674;2022-07-23T01:00:29;4.90;;;4.50;;
10596;SDS011;5346;48.766;8.674;2022-07-23T01:02:57;5.20;;;4.70;;
10596;SDS011;5346;48.766;8.674;2022-07-23T01:05:37;7.28;;;4.68;;
10596;SDS011;5346;48.766;8.674;2022-07-23T01:08:05;5.53;;;4.70;;
10596;SDS011;5346;48.766;8.674;2022-07-23T01:10:39;6.28;;;4.88;;
10596;SDS011;5346;48.766;8.674;2022-07-23T01:13:09;4.90;;;4.50;;
10596;SDS011;5346;48.766;8.674;2022-07-23T01:15:37;5.70;;;4.70;;
10596;SDS011;5346;48.766;8.674;2022-07-23T01:18:11;4.80;;;4.35;;
10596;SDS011;5346;48.766;8.674;2022-07-23T01:20:39;4.90;;;4.40;;
10596;SDS011;5346;48.766;8.674;2022-07-23T01:23:07;5.10;;;4.60;;
10596;SDS011;5346;48.766;8.674;2022-07-23T01:26:01;4.90;;;4.50;;
10596;SDS011;5346;48.766;8.674;2022-07-23T01:28:28;4.95;;;4.55;;
10596;SDS011;5346;48.766;8.674;2022-07-23T01:31:02;6.90;;;5.03;;
10596;SDS011;5346;48.766;8.674;2022-07-23T01:33:30;5.68;;;4.70;;
10596;SDS011;5346;48.766;8.674;2022-07-23T01:35:58;6.47;;;4.63;;
10596;SDS011;5346;48.766;8.674;2022-07-23T01:38:31;7.90;;;5.10;;
10596;SDS011;5346;48.766;8.674;2022-07-23T01:40:59;5.40;;;4.97;;
10596;SDS011;5346;48.766;8.674;2022-07-23T01:43:27;5.28;;;4.68;;
10596;SDS011;5346;48.766;8.674;2022-07-23T01:46:01;5.55;;;5.03;;
10596;SDS011;5346;48.766;8.674;2022-07-23T01:48:29;5.72;;;5.13;;
10596;SDS011;5346;48.766;8.674;2022-07-23T01:50:57;6.18;;;5.00;;
10596;SDS011;5346;48.766;8.674;2022-07-23T01:53:30;5.57;;;5.07;;
10596;SDS011;5346;48.766;8.674;2022-07-23T01:55:58;7.18;;;5.65;;
10596;SDS011;5346;48.766;8.674;2022-07-23T01:58:26;6.00;;;5.45;;
10596;SDS011;5346;48.766;8.674;2022-07-23T02:01:00;7.15;;;5.90;;
10596;SDS011;5346;48.766;8.674;2022-07-23T02:03:35;6.53;;;5.82;;
10596;SDS011;5346;48.766;8.674;2022-07-23T02:06:16;6.18;;;5.57;;
10596;SDS011;5346;48.766;8.674;2022-07-23T02:08:44;8.07;;;5.82;;
10596;SDS011;5346;48.766;8.674;2022-07-23T02:11:11;6.72;;;5.60;;
10596;SDS011;5346;48.766;8.674;2022-07-23T02:13:45;6.28;;;5.68;;
10596;SDS011;5346;48.766;8.674;2022-07-23T02:16:13;7.55;;;6.20;;
10596;SDS011;5346;48.766;8.674;2022-07-23T02:18:41;7.25;;;6.10;;
10596;SDS011;5346;48.766;8.674;2022-07-23T02:21:16;6.97;;;6.28;;
10596;SDS011;5346;48.766;8.674;2022-07-23T02:23:43;8.20;;;6.05;;
10596;SDS011;5346;48.766;8.674;2022-07-23T02:26:11;8.18;;;6.50;;
10596;SDS011;5346;48.766;8.674;2022-07-23T02:28:46;6.43;;;5.72;;
10596;SDS011;5346;48.766;8.674;2022-07-23T02:31:13;6.28;;;5.68;;
10596;SDS011;5346;48.766;8.674;2022-07-23T02:33:41;6.68;;;5.97;;
10596;SDS011;5346;48.766;8.674;2022-07-23T02:36:14;7.45;;;5.88;;
10596;SDS011;5346;48.766;8.674;2022-07-23T02:38:42;8.90;;;5.68;;
10596;SDS011;5346;48.766;8.674;2022-07-23T02:41:09;6.47;;;5.80;;
10596;SDS011;5346;48.766;8.674;2022-07-23T02:43:43;7.30;;;6.28;;
10596;SDS011;5346;48.766;8.674;2022-07-23T02:46:11;6.00;;;5.50;;
10596;SDS011;5346;48.766;8.674;2022-07-23T02:48:39;5.85;;;5.40;;
10596;SDS011;5346;48.766;8.674;2022-07-23T02:51:14;6.50;;;5.85;;
10596;SDS011;5346;48.766;8.674;2022-07-23T02:53:41;6.30;;;5.70;;
10596;SDS011;5346;48.766;8.674;2022-07-23T02:56:09;6.40;;;5.80;;
10596;SDS011;5346;48.766;8.674;2022-07-23T02:58:43;6.03;;;5.40;;
10596;SDS011;5346;48.766;8.674;2022-07-23T03:01:10;6.90;;;5.97;;
10596;SDS011;5346;48.766;8.674;2022-07-23T03:03:38;7.93;;;5.93;;
10596;SDS011;5346;48.766;8.674;2022-07-23T03:06:19;8.07;;;6.00;;
10596;SDS011;5346;48.766;8.674;2022-07-23T03:08:47;7.25;;;6.35;;
10596;SDS011;5346;48.766;8.674;2022-07-23T03:11:21;6.07;;;5.53;;
10596;SDS011;5346;48.766;8.674;2022-07-23T03:13:50;8.80;;;6.05;;
10596;SDS011;5346;48.766;8.674;2022-07-23T03:16:18;6.18;;;5.57;;
10596;SDS011;5346;48.766;8.674;2022-07-23T03:18:52;6.38;;;5.78;;
10596;SDS011;5346;48.766;8.674;2022-07-23T03:21:19;8.68;;;5.93;;
10596;SDS011;5346;48.766;8.674;2022-07-23T03:23:47;6.70;;;6.10;;
10596;SDS011;5346;48.766;8.674;2022-07-23T03:26:21;8.45;;;5.85;;
10596;SDS011;5346;48.766;8.674;2022-07-23T03:28:57;6.10;;;5.60;;
10596;SDS011;5346;48.766;8.674;2022-07-23T03:31:34;6.65;;;6.03;;
10596;SDS011;5346;48.766;8.674;2022-07-23T03:34:01;6.22;;;5.35;;
10596;SDS011;5346;48.766;8.674;2022-07-23T03:36:29;5.90;;;5.30;;
10596;SDS011;5346;48.766;8.674;2022-07-23T03:39:04;6.10;;;5.55;;
10596;SDS011;5346;48.766;8.674;2022-07-23T03:41:37;6.53;;;5.22;;
10596;SDS011;5346;48.766;8.674;2022-07-23T03:44:12;6.10;;;5.55;;
10596;SDS011;5346;48.766;8.674;2022-07-23T03:46:39;6.25;;;5.65;;
10596;SDS011;5346;48.766;8.674;2022-07-23T03:49:07;5.47;;;4.97;;
10596;SDS011;5346;48.766;8.674;2022-07-23T03:51:41;7.05;;;4.97;;
10596;SDS011;5346;48.766;8.674;2022-07-23T03:54:09;6.15;;;5.55;;
10596;SDS011;5346;48.766;8.674;2022-07-23T03:56:36;8.13;;;5.25;;
10596;SDS011;5346;48.766;8.674;2022-07-23T03:59:11;5.22;;;4.72;;
10596;SDS011;5346;48.766;8.674;2022-07-23T04:01:38;10.02;;;5.07;;
10596;SDS011;5346;48.766;8.674;2022-07-23T04:04:06;7.63;;;5.53;;
10596;SDS011;5346;48.766;8.674;2022-07-23T04:06:41;5.50;;;4.95;;
10596;SDS011;5346;48.766;8.674;2022-07-23T04:09:16;5.97;;;5.15;;
10596;SDS011;5346;48.766;8.674;2022-07-23T04:11:50;5.47;;;4.97;;
10596;SDS011;5346;48.766;8.674;2022-07-23T04:14:17;6.05;;;5.03;;
10596;SDS011;5346;48.766;8.674;2022-07-23T04:16:45;7.53;;;5.22;;
10596;SDS011;5346;48.766;8.674;2022-07-23T04:19:19;7.03;;;5.07;;
10596;SDS011;5346;48.766;8.674;2022-07-23T04:21:46;5.18;;;4.68;;
10596;SDS011;5346;48.766;8.674;2022-07-23T04:24:14;5.47;;;4.97;;
10596;SDS011;5346;48.766;8.674;2022-07-23T04:26:57;5.60;;;5.03;;
10596;SDS011;5346;48.766;8.674;2022-07-23T04:29:25;5.25;;;4.75;;
10596;SDS011;5346;48.766;8.674;2022-07-23T04:31:59;5.05;;;4.65;;
10596;SDS011;5346;48.766;8.674;2022-07-23T04:34:27;6.00;;;4.93;;
10596;SDS011;5346;48.766;8.674;2022-07-23T04:36:55;6.45;;;4.90;;
10596;SDS011;5346;48.766;8.674;2022-07-23T04:39:30;8.38;;;5.30;;
10596;SDS011;5346;48.766;8.674;2022-07-23T04:41:57;5.85;;;4.90;;
10596;SDS011;5346;48.766;8.674;2022-07-23T04:44:25;6.30;;;4.85;;
10596;SDS011;5346;48.766;8.674;2022-07-23T04:46:59;6.65;;;4.40;;
10596;SDS011;5346;48.766;8.674;2022-07-23T04:49:28;5.47;;;4.40;;
10596;SDS011;5346;48.766;8.674;2022-07-23T04:51:56;4.97;;;4.45;;
10596;SDS011;5346;48.766;8.674;2022-07-23T04:54:30;4.82;;;4.32;;
10596;SDS011;5346;48.766;8.674;2022-07-23T04:56:58;4.60;;;4.13;;
10596;SDS011;5346;48.766;8.674;2022-07-23T04:59:25;5.70;;;4.60;;
10596;SDS011;5346;48.766;8.674;2022-07-23T05:02:00;4.20;;;3.80;;
10596;SDS011;5346;48.766;8.674;2022-07-23T05:04:34;5.50;;;4.15;;
10596;SDS011;5346;48.766;8.674;2022-07-23T05:07:08;5.53;;;4.28;;
10596;SDS011;5346;48.766;8.674;2022-07-23T05:09:35;4.38;;;3.97;;
10596;SDS011;5346;48.766;8.674;2022-07-23T05:12:03;5.68;;;4.30;;
10596;SDS011;5346;48.766;8.674;2022-07-23T05:14:37;4.78;;;4.38;;
10596;SDS011;5346;48.766;8.674;2022-07-23T05:17:04;5.70;;;4.63;;
10596;SDS011;5346;48.766;8.674;2022-07-23T05:19:34;5.50;;;4.40;;
10596;SDS011;5346;48.766;8.674;2022-07-23T05:22:09;4.88;;;4.35;;
10596;SDS011;5346;48.766;8.674;2022-07-23T05:24:36;5.25;;;4.25;;
10596;SDS011;5346;48.766;8.674;2022-07-23T05:27:04;7.20;;;4.43;;
10596;SDS011;5346;48.766;8.674;2022-07-23T05:29:38;4.63;;;4.07;;
10596;SDS011;5346;48.766;8.674;2022-07-23T05:32:06;6.03;;;4.53;;
10596;SDS011;5346;48.766;8.674;2022-07-23T05:34:33;5.38;;;4.47;;
10596;SDS011;5346;48.766;8.674;2022-07-23T05:37:08;5.22;;;4.07;;
10596;SDS011;5346;48.766;8.674;2022-07-23T05:39:35;4.85;;;3.88;;
10596;SDS011;5346;48.766;8.674;2022-07-23T05:42:03;4.70;;;4.30;;
10596;SDS011;5346;48.766;8.674;2022-07-23T05:44:40;4.47;;;4.07;;
10596;SDS011;5346;48.766;8.674;2022-07-23T05:47:08;4.82;;;4.32;;
10596;SDS011;5346;48.766;8.674;2022-07-23T05:49:36;3.90;;;3.60;;
10596;SDS011;5346;48.766;8.674;2022-07-23T05:52:12;4.47;;;4.07;;
10596;SDS011;5346;48.766;8.674;2022-07-23T05:54:39;5.85;;;4.18;;
10596;SDS011;5346;48.766;8.674;2022-07-23T05:57:08;7.70;;;4.90;;
10596;SDS011;5346;48.766;8.674;2022-07-23T05:59:48;5.00;;;4.50;;
10596;SDS011;5346;48.766;8.674;2022-07-23T06:02:16;7.32;;;4.72;;
10596;SDS011;5346;48.766;8.674;2022-07-23T06:04:50;5.18;;;4.68;;
10596;SDS011;5346;48.766;8.674;2022-07-23T06:07:24;5.03;;;4.53;;
10596;SDS011;5346;48.766;8.674;2022-07-23T06:09:59;5.10;;;4.60;;
10596;SDS011;5346;48.766;8.674;2022-07-23T06:12:27;5.25;;;4.43;;
10596;SDS011;5346;48.766;8.674;2022-07-23T06:14:54;4.95;;;4.45;;
10596;SDS011;5346;48.766;8.674;2022-07-23T06:17:28;5.07;;;4.65;;
10596;SDS011;5346;48.766;8.674;2022-07-23T06:19:56;5.68;;;4.65;;
10596;SDS011;5346;48.766;8.674;2022-07-23T06:22:23;5.22;;;4.75;;
10596;SDS011;5346;48.766;8.674;2022-07-23T06:24:57;7.03;;;4.90;;
10596;SDS011;5346;48.766;8.674;2022-07-23T06:27:24;6.65;;;4.88;;
10596;SDS011;5346;48.766;8.674;2022-07-23T06:29:52;5.95;;;4.65;;
10596;SDS011;5346;48.766;8.674;2022-07-23T06:32:27;5.97;;;4.60;;
10596;SDS011;5346;48.766;8.674;2022-07-23T06:34:55;6.50;;;5.20;;
10596;SDS011;5346;48.766;8.674;2022-07-23T06:37:22;5.68;;;5.05;;
10596;SDS011;5346;48.766;8.674;2022-07-23T06:39:56;6.30;;;5.30;;
10596;SDS011;5346;48.766;8.674;2022-07-23T06:42:24;6.45;;;5.85;;
10596;SDS011;5346;48.766;8.674;2022-07-23T06:44:52;6.47;;;5.43;;
10596;SDS011;5346;48.766;8.674;2022-07-23T06:47:26;6.88;;;5.93;;
10596;SDS011;5346;48.766;8.674;2022-07-23T06:49:53;6.75;;;6.00;;
10596;SDS011;5346;48.766;8.674;2022-07-23T06:52:21;7.00;;;6.30;;
10596;SDS011;5346;48.766;8.674;2022-07-23T06:54:55;8.05;;;6.65;;
10596;SDS011;5346;48.766;8.674;2022-07-23T06:57:23;7.43;;;6.72;;
10596;SDS011;5346;48.766;8.674;2022-07-23T06:59:53;9.15;;;7.55;;
10596;SDS011;5346;48.766;8.674;2022-07-23T07:02:27;8.02;;;6.85;;
10596;SDS011;5346;48.766;8.674;2022-07-23T07:05:02;9.05;;;7.68;;
10596;SDS011;5346;48.766;8.674;2022-07-23T07:07:43;8.05;;;7.05;;
10596;SDS011;5346;48.766;8.674;2022-07-23T07:10:11;9.02;;;6.82;;
10596;SDS011;5346;48.766;8.674;2022-07-23T07:12:41;8.18;;;7.32;;
10596;SDS011;5346;48.766;8.674;2022-07-23T07:15:15;10.30;;;7.22;;
10596;SDS011;5346;48.766;8.674;2022-07-23T07:17:42;7.65;;;6.95;;
10596;SDS011;5346;48.766;8.674;2022-07-23T07:20:10;7.80;;;7.00;;
10596;SDS011;5346;48.766;8.674;2022-07-23T07:22:44;7.40;;;6.43;;
10596;SDS011;5346;48.766;8.674;2022-07-23T07:25:13;7.93;;;7.13;;
10596;SDS011;5346;48.766;8.674;2022-07-23T07:27:42;7.80;;;7.10;;
10596;SDS011;5346;48.766;8.674;2022-07-23T07:30:17;7.70;;;6.38;;
10596;SDS011;5346;48.766;8.674;2022-07-23T07:32:44;8.82;;;6.60;;
10596;SDS011;5346;48.766;8.674;2022-07-23T07:35:26;7.40;;;6.55;;
10596;SDS011;5346;48.766;8.674;2022-07-23T07:37:54;7.43;;;6.32;;
10596;SDS011;5346;48.766;8.674;2022-07-23T07:40:25;7.80;;;6.38;;
10596;SDS011;5346;48.766;8.674;2022-07-23T07:43:01;7.32;;;6.63;;
10596;SDS011;5346;48.766;8.674;2022-07-23T07:45:29;7.80;;;6.65;;
10596;SDS011;5346;48.766;8.674;2022-07-23T07:47:58;7.53;;;6.65;;
10596;SDS011;5346;48.766;8.674;2022-07-23T07:50:32;7.85;;;6.18;;
10596;SDS011;5346;48.766;8.674;2022-07-23T07:53:00;6.75;;;6.15;;
10596;SDS011;5346;48.766;8.674;2022-07-23T07:55:28;6.30;;;5.60;;
10596;SDS011;5346;48.766;8.674;2022-07-23T07:58:03;5.90;;;5.30;;
10596;SDS011;5346;48.766;8.674;2022-07-23T08:00:31;6.45;;;5.95;;
10596;SDS011;5346;48.766;8.674;2022-07-23T08:02:59;7.35;;;5.70;;
10596;SDS011;5346;48.766;8.674;2022-07-23T08:05:41;6.88;;;5.57;;
10596;SDS011;5346;48.766;8.674;2022-07-23T08:08:09;6.07;;;5.47;;
10596;SDS011;5346;48.766;8.674;2022-07-23T08:10:47;6.40;;;5.75;;
10596;SDS011;5346;48.766;8.674;2022-07-23T08:13:15;8.40;;;5.75;;
10596;SDS011;5346;48.766;8.674;2022-07-23T08:15:43;7.25;;;5.78;;
10596;SDS011;5346;48.766;8.674;2022-07-23T08:18:18;7.13;;;5.65;;
10596;SDS011;5346;48.766;8.674;2022-07-23T08:20:46;5.78;;;5.28;;
10596;SDS011;5346;48.766;8.674;2022-07-23T08:23:13;4.72;;;4.32;;
10596;SDS011;5346;48.766;8.674;2022-07-23T08:25:55;5.65;;;5.07;;
10596;SDS011;5346;48.766;8.674;2022-07-23T08:28:23;5.18;;;4.68;;
10596;SDS011;5346;48.766;8.674;2022-07-23T08:30:51;5.72;;;5.22;;
10596;SDS011;5346;48.766;8.674;2022-07-23T08:33:25;5.20;;;4.70;;
10596;SDS011;5346;48.766;8.674;2022-07-23T08:36:00;4.68;;;4.28;;
10596;SDS011;5346;48.766;8.674;2022-07-23T08:38:36;5.70;;;5.20;;
10596;SDS011;5346;48.766;8.674;2022-07-23T08:41:04;5.63;;;5.10;;
10596;SDS011;5346;48.766;8.674;2022-07-23T08:43:34;5.68;;;5.13;;
10596;SDS011;5346;48.766;8.674;2022-07-23T08:46:08;5.38;;;4.97;;
10596;SDS011;5346;48.766;8.674;2022-07-23T08:48:37;7.07;;;4.82;;
10596;SDS011;5346;48.766;8.674;2022-07-23T08:51:05;6.35;;;5.28;;
10596;SDS011;5346;48.766;8.674;2022-07-23T08:53:40;4.53;;;4.13;;
10596;SDS011;5346;48.766;8.674;2022-07-23T08:56:09;5.40;;;4.68;;
10596;SDS011;5346;48.766;8.674;2022-07-23T08:58:37;4.93;;;4.43;;
10596;SDS011;5346;48.766;8.674;2022-07-23T09:01:11;5.20;;;4.70;;
10596;SDS011;5346;48.766;8.674;2022-07-23T09:03:40;5.15;;;4.65;;
10596;SDS011;5346;48.766;8.674;2022-07-23T09:06:28;5.30;;;4.60;;
10596;SDS011;5346;48.766;8.674;2022-07-23T09:08:55;5.60;;;5.10;;
10596;SDS011;5346;48.766;8.674;2022-07-23T09:11:29;5.72;;;5.20;;
10596;SDS011;5346;48.766;8.674;2022-07-23T09:13:57;5.05;;;4.57;;
10596;SDS011;5346;48.766;8.674;2022-07-23T09:16:29;5.90;;;4.93;;
10596;SDS011;5346;48.766;8.674;2022-07-23T09:19:05;4.90;;;4.40;;
10596;SDS011;5346;48.766;8.674;2022-07-23T09:21:38;5.45;;;5.00;;
10596;SDS011;5346;48.766;8.674;2022-07-23T09:24:12;5.80;;;5.20;;
10596;SDS011;5346;48.766;8.674;2022-07-23T09:26:44;5.80;;;4.90;;
10596;SDS011;5346;48.766;8.674;2022-07-23T09:29:23;5.95;;;5.07;;
10596;SDS011;5346;48.766;8.674;2022-07-23T09:31:53;5.57;;;5.07;;
10596;SDS011;5346;48.766;8.674;2022-07-23T09:34:35;5.97;;;4.70;;
10596;SDS011;5346;48.766;8.674;2022-07-23T09:37:13;5.75;;;5.25;;
10596;SDS011;5346;48.766;8.674;2022-07-23T09:39:48;5.95;;;5.10;;
10596;SDS011;5346;48.766;8.674;2022-07-23T09:42:20;5.55;;;5.05;;
10596;SDS011;5346;48.766;8.674;2022-07-23T09:44:58;5.53;;;4.95;;
10596;SDS011;5346;48.766;8.674;2022-07-23T09:47:29;5.97;;;5.38;;
10596;SDS011;5346;48.766;8.674;2022-07-23T09:50:05;5.38;;;4.88;;
10596;SDS011;5346;48.766;8.674;2022-07-23T09:52:37;7.90;;;5.28;;
10596;SDS011;5346;48.766;8.674;2022-07-23T09:55:18;5.50;;;5.00;;
10596;SDS011;5346;48.766;8.674;2022-07-23T09:57:59;5.10;;;4.70;;
10596;SDS011;5346;48.766;8.674;2022-07-23T10:00:33;6.43;;;4.97;;
10596;SDS011;5346;48.766;8.674;2022-07-23T10:03:01;5.60;;;4.95;;
10596;SDS011;5346;48.766;8.674;2022-07-23T10:05:32;5.82;;;5.32;;
10596;SDS011;5346;48.766;8.674;2022-07-23T10:08:08;5.55;;;5.05;;
10596;SDS011;5346;48.766;8.674;2022-07-23T10:10:39;6.07;;;5.18;;
10596;SDS011;5346;48.766;8.674;2022-07-23T10:13:07;5.45;;;4.95;;
10596;SDS011;5346;48.766;8.674;2022-07-23T10:16:00;5.53;;;5.03;;
10596;SDS011;5346;48.766;8.674;2022-07-23T10:18:29;5.95;;;5.05;;
10596;SDS011;5346;48.766;8.674;2022-07-23T10:20:57;5.22;;;4.82;;
10596;SDS011;5346;48.766;8.674;2022-07-23T10:23:35;5.93;;;5.32;;
10596;SDS011;5346;48.766;8.674;2022-07-23T10:34:49;5.82;;;5.32;;
10596;SDS011;5346;48.766;8.674;2022-07-23T10:37:28;5.57;;;5.18;;
10596;SDS011;5346;48.766;8.674;2022-07-23T10:40:20;7.85;;;5.43;;
10596;SDS011;5346;48.766;8.674;2022-07-23T10:42:51;8.15;;;5.38;;
10596;SDS011;5346;48.766;8.674;2022-07-23T10:48:11;5.65;;;5.15;;
10596;SDS011;5346;48.766;8.674;2022-07-23T11:02:55;5.82;;;5.32;;
10596;SDS011;5346;48.766;8.674;2022-07-23T11:05:26;5.20;;;4.80;;
10596;SDS011;5346;48.766;8.674;2022-07-23T11:08:20;6.55;;;5.80;;
10596;SDS011;5346;48.766;8.674;2022-07-23T11:26:48;5.93;;;4.88;;
10596;SDS011;5346;48.766;8.674;2022-07-23T11:32:28;4.88;;;4.47;;
10596;SDS011;5346;48.766;8.674;2022-07-23T11:35:24;5.88;;;4.88;;
10596;SDS011;5346;48.766;8.674;2022-07-23T11:38:19;5.50;;;5.00;;
10596;SDS011;5346;48.766;8.674;2022-07-23T11:40:51;6.13;;;5.35;;
10596;SDS011;5346;48.766;8.674;2022-07-23T11:43:27;5.65;;;4.90;;
10596;SDS011;5346;48.766;8.674;2022-07-23T11:45:59;5.78;;;5.18;;
10596;SDS011;5346;48.766;8.674;2022-07-23T11:48:29;6.00;;;4.95;;
10596;SDS011;5346;48.766;8.674;2022-07-23T11:51:06;5.57;;;5.07;;
10596;SDS011;5346;48.766;8.674;2022-07-23T11:53:34;5.75;;;5.25;;
10596;SDS011;5346;48.766;8.674;2022-07-23T11:56:11;6.25;;;5.65;;
10596;SDS011;5346;48.766;8.674;2022-07-23T11:58:54;5.70;;;5.20;;
10596;SDS011;5346;48.766;8.674;2022-07-23T12:01:27;6.30;;;5.47;;
10596;SDS011;5346;48.766;8.674;2022-07-23T12:04:08;5.78;;;5.18;;
10596;SDS011;5346;48.766;8.674;2022-07-23T12:06:39;6.63;;;5.85;;
10596;SDS011;5346;48.766;8.674;2022-07-23T12:09:13;7.00;;;5.70;;
10596;SDS011;5346;48.766;8.674;2022-07-23T12:12:02;5.55;;;5.15;;
10596;SDS011;5346;48.766;8.674;2022-07-23T12:14:46;5.88;;;5.38;;
10596;SDS011;5346;48.766;8.674;2022-07-23T12:17:15;5.97;;;5.40;;
10596;SDS011;5346;48.766;8.674;2022-07-23T12:19:49;6.20;;;5.40;;
10596;SDS011;5346;48.766;8.674;2022-07-23T12:22:17;7.80;;;5.88;;
10596;SDS011;5346;48.766;8.674;2022-07-23T12:24:58;6.47;;;5.88;;
10596;SDS011;5346;48.766;8.674;2022-07-23T12:27:35;6.05;;;5.55;;
10596;SDS011;5346;48.766;8.674;2022-07-23T12:30:22;5.93;;;5.32;;
10596;SDS011;5346;48.766;8.674;2022-07-23T12:33:00;7.65;;;5.82;;
10596;SDS011;5346;48.766;8.674;2022-07-23T12:35:30;5.88;;;5.38;;
10596;SDS011;5346;48.766;8.674;2022-07-23T12:38:10;5.40;;;4.90;;
10596;SDS011;5346;48.766;8.674;2022-07-23T12:43:45;5.68;;;5.18;;
10596;SDS011;5346;48.766;8.674;2022-07-23T12:46:17;5.18;;;4.68;;
10596;SDS011;5346;48.766;8.674;2022-07-23T12:48:54;5.82;;;5.32;;
10596;SDS011;5346;48.766;8.674;2022-07-23T12:51:24;6.18;;;5.18;;
10596;SDS011;5346;48.766;8.674;2022-07-23T12:53:57;6.75;;;5.15;;
10596;SDS011;5346;48.766;8.674;2022-07-23T12:56:33;6.22;;;5.65;;
10596;SDS011;5346;48.766;8.674;2022-07-23T12:59:08;9.52;;;5.07;;
10596;SDS011;5346;48.766;8.674;2022-07-23T13:01:44;6.40;;;5.75;;
10596;SDS011;5346;48.766;8.674;2022-07-23T13:04:23;5.50;;;5.00;;
10596;SDS011;5346;48.766;8.674;2022-07-23T13:07:13;6.40;;;5.80;;
10596;SDS011;5346;48.766;8.674;2022-07-23T13:09:41;6.20;;;5.32;;
10596;SDS011;5346;48.766;8.674;2022-07-23T13:12:16;6.55;;;5.95;;
10596;SDS011;5346;48.766;8.674;2022-07-23T13:14:44;6.10;;;5.53;;
10596;SDS011;5346;48.766;8.674;2022-07-23T13:17:12;6.80;;;5.70;;
10596;SDS011;5346;48.766;8.674;2022-07-23T13:19:47;5.93;;;5.35;;
10596;SDS011;5346;48.766;8.674;2022-07-23T13:22:15;6.25;;;5.18;;
10596;SDS011;5346;48.766;8.674;2022-07-23T13:24:44;6.00;;;5.30;;
10596;SDS011;5346;48.766;8.674;2022-07-23T13:27:18;6.00;;;5.50;;
10596;SDS011;5346;48.766;8.674;2022-07-23T13:29:46;7.05;;;5.40;;
10596;SDS011;5346;48.766;8.674;2022-07-23T13:32:14;7.65;;;5.55;;
10596;SDS011;5346;48.766;8.674;2022-07-23T13:34:49;5.75;;;5.25;;
10596;SDS011;5346;48.766;8.674;2022-07-23T13:37:16;6.05;;;5.28;;
10596;SDS011;5346;48.766;8.674;2022-07-23T13:39:45;6.07;;;5.35;;
10596;SDS011;5346;48.766;8.674;2022-07-23T13:42:19;5.82;;;5.32;;
10596;SDS011;5346;48.766;8.674;2022-07-23T13:44:49;6.05;;;5.43;;
10596;SDS011;5346;48.766;8.674;2022-07-23T13:47:17;6.03;;;5.53;;
10596;SDS011;5346;48.766;8.674;2022-07-23T13:49:52;7.05;;;5.70;;
10596;SDS011;5346;48.766;8.674;2022-07-23T13:52:20;6.13;;;5.40;;
10596;SDS011;5346;48.766;8.674;2022-07-23T13:54:48;5.55;;;5.03;;
10596;SDS011;5346;48.766;8.674;2022-07-23T13:57:22;7.63;;;6.03;;
10596;SDS011;5346;48.766;8.674;2022-07-23T13:59:52;5.90;;;5.28;;
10596;SDS011;5346;48.766;8.674;2022-07-23T14:02:30;15.52;;;5.70;;
10596;SDS011;5346;48.766;8.674;2022-07-23T14:04:59;6.18;;;5.57;;
10596;SDS011;5346;48.766;8.674;2022-07-23T14:07:47;6.28;;;5.57;;
10596;SDS011;5346;48.766;8.674;2022-07-23T14:10:23;6.20;;;5.70;;
10596;SDS011;5346;48.766;8.674;2022-07-23T14:12:57;6.22;;;5.57;;
10596;SDS011;5346;48.766;8.674;2022-07-23T14:15:26;6.20;;;5.35;;
10596;SDS011;5346;48.766;8.674;2022-07-23T14:17:56;5.95;;;5.40;;
10596;SDS011;5346;48.766;8.674;2022-07-23T14:20:30;6.43;;;5.70;;
10596;SDS011;5346;48.766;8.674;2022-07-23T14:22:59;6.25;;;5.65;;
10596;SDS011;5346;48.766;8.674;2022-07-23T14:25:33;5.65;;;5.15;;
10596;SDS011;5346;48.766;8.674;2022-07-23T14:28:09;6.05;;;5.55;;
10596;SDS011;5346;48.766;8.674;2022-07-23T14:30:39;6.18;;;5.38;;
10596;SDS011;5346;48.766;8.674;2022-07-23T14:33:16;6.18;;;5.50;;
10596;SDS011;5346;48.766;8.674;2022-07-23T14:35:44;6.32;;;5.57;;
10596;SDS011;5346;48.766;8.674;2022-07-23T14:38:12;6.15;;;5.47;;
10596;SDS011;5346;48.766;8.674;2022-07-23T14:40:46;8.18;;;5.60;;
10596;SDS011;5346;48.766;8.674;2022-07-23T14:43:15;5.85;;;5.25;;
10596;SDS011;5346;48.766;8.674;2022-07-23T14:45:43;6.05;;;5.43;;
10596;SDS011;5346;48.766;8.674;2022-07-23T14:48:18;6.60;;;6.05;;
10596;SDS011;5346;48.766;8.674;2022-07-23T14:50:47;7.03;;;5.90;;
10596;SDS011;5346;48.766;8.674;2022-07-23T14:53:15;6.38;;;5.75;;
10596;SDS011;5346;48.766;8.674;2022-07-23T14:55:51;6.00;;;5.40;;
10596;SDS011;5346;48.766;8.674;2022-07-23T14:58:20;6.30;;;5.70;;
10596;SDS011;5346;48.766;8.674;2022-07-23T15:00:49;6.07;;;5.47;;
10596;SDS011;5346;48.766;8.674;2022-07-23T15:03:23;6.95;;;5.57;;
10596;SDS011;5346;48.766;8.674;2022-07-23T15:06:08;7.43;;;5.70;;
10596;SDS011;5346;48.766;8.674;2022-07-23T15:08:51;6.43;;;5.82;;
10596;SDS011;5346;48.766;8.674;2022-07-23T15:11:19;7.15;;;5.80;;
10596;SDS011;5346;48.766;8.674;2022-07-23T15:13:46;7.68;;;5.93;;
10596;SDS011;5346;48.766;8.674;2022-07-23T15:16:20;7.82;;;5.97;;
10596;SDS011;5346;48.766;8.674;2022-07-23T15:18:50;6.55;;;5.85;;
10596;SDS011;5346;48.766;8.674;2022-07-23T15:21:17;6.82;;;5.82;;
10596;SDS011;5346;48.766;8.674;2022-07-23T15:23:52;6.10;;;5.60;;
10596;SDS011;5346;48.766;8.674;2022-07-23T15:26:22;7.00;;;5.55;;
10596;SDS011;5346;48.766;8.674;2022-07-23T15:28:49;6.38;;;5.75;;
10596;SDS011;5346;48.766;8.674;2022-07-23T15:31:23;6.00;;;5.40;;
10596;SDS011;5346;48.766;8.674;2022-07-23T15:33:54;8.63;;;6.28;;
10596;SDS011;5346;48.766;8.674;2022-07-23T15:36:22;6.75;;;6.00;;
10596;SDS011;5346;48.766;8.674;2022-07-23T15:38:56;6.70;;;6.07;;
10596;SDS011;5346;48.766;8.674;2022-07-23T15:41:24;7.10;;;6.40;;
10596;SDS011;5346;48.766;8.674;2022-07-23T15:43:52;7.30;;;6.57;;
10596;SDS011;5346;48.766;8.674;2022-07-23T15:46:47;8.52;;;6.35;;
10596;SDS011;5346;48.766;8.674;2022-07-23T15:49:15;7.97;;;6.28;;
10596;SDS011;5346;48.766;8.674;2022-07-23T15:51:49;7.47;;;6.25;;
10596;SDS011;5346;48.766;8.674;2022-07-23T15:54:17;8.05;;;6.50;;
10596;SDS011;5346;48.766;8.674;2022-07-23T15:56:45;8.68;;;6.05;;
10596;SDS011;5346;48.766;8.674;2022-07-23T15:59:20;7.88;;;6.57;;
10596;SDS011;5346;48.766;8.674;2022-07-23T16:01:55;6.93;;;6.32;;
10596;SDS011;5346;48.766;8.674;2022-07-23T16:04:36;7.13;;;6.53;;
10596;SDS011;5346;48.766;8.674;2022-07-23T16:07:18;6.72;;;6.03;;
10596;SDS011;5346;48.766;8.674;2022-07-23T16:09:52;6.32;;;5.70;;
10596;SDS011;5346;48.766;8.674;2022-07-23T16:12:21;7.68;;;6.30;;
10596;SDS011;5346;48.766;8.674;2022-07-23T16:14:48;9.15;;;6.18;;
10596;SDS011;5346;48.766;8.674;2022-07-23T16:17:28;6.32;;;5.72;;